Latest Coastal Weather Observations for Charles Point

IDD60701

Issued at 2:41 am CST Friday 20 September 2019 (issued every 10 minutes, with the page automatically refreshed every 10 minutes)

About coastal observations | Map of coastal stations | Coastal observations for NT | Marine services | Other Formats
Station Details ID: 014031 Name: CHARLES POINT Lat: -12.39 Lon: 130.63 Height: 14.0 m
Data from the previous 72 hours. | See also: Recent months for locations in Northern Territory
Date/Time
CST
Wind Sea
Height
m
Swell Vis
km
Cloud Weather Temp
°C
Press
hPa
Rain since
9am
mm
Dir  Spd
kts
Gust
kts
Height
m
Period
s
Dir
20/02:30am WNW 7 10 - - - - - - - 24.7 1012.9 0.0
20/02:00am NW 8 11 - - - - - - - 25.0 1012.9 0.0
20/01:30am NW 8 11 - - - - - - - 25.3 1013.1 0.0
20/01:00am WNW 8 11 - - - - - - - 25.6 1013.4 0.0
20/12:30am WNW 9 12 - - - - - - - 25.8 1013.8 0.0
20/12:00am WNW 9 11 - - - - - - - 26.0 1014.1 0.0
 
Date/Time
CST
Wind Sea
Height
m
Swell Vis
km
Cloud Weather Temp
°C
Press
hPa
Rain since
9am
mm
Dir  Spd
kts
Gust
kts
Height
m
Period
s
Dir
19/11:30pm WNW 8 12 - - - - - - - 26.2 1014.3 0.0
19/11:00pm WNW 10 13 - - - - - - - 26.3 1014.7 0.0
19/10:30pm WNW 10 13 - - - - - - - 26.4 1014.6 0.0
19/10:00pm WNW 11 14 - - - - - - - 26.4 1014.3 0.0
19/09:30pm WNW 10 14 - - - - - - - 26.5 1013.9 0.0
19/09:00pm W 8 12 - - - - - - - 26.4 1013.4 0.0
19/08:30pm WNW 10 15 - - - - - - - 26.7 1013.0 0.0
19/08:00pm WNW 10 14 - - - - - - - 26.7 1012.8 0.0
19/07:30pm WNW 10 14 - - - - - - - 27.1 1012.5 0.0
19/07:00pm NE 6 8 - - - - - - - 27.8 1011.9 0.0
19/06:30pm NE 5 7 - - - - - - - 27.8 1011.7 0.0
19/06:00pm NE 7 10 - - - - - - - 28.1 1011.7 0.0
19/05:30pm NNE 7 10 - - - - - - - 28.2 1011.6 0.0
19/05:00pm NNE 8 12 - - - - - - - 28.4 1011.4 0.0
19/04:30pm NNE 9 12 - - - - - - - 28.4 1011.5 0.0
19/04:00pm N 9 12 - - - - - - - 28.2 1011.3 0.0
19/03:30pm N 6 8 - - - - - - - 28.6 1011.4 0.0
19/03:00pm NNW 6 9 - - - - - - - 28.9 1011.7 0.0
19/02:30pm NW 6 9 - - - - - - - 28.8 1012.0 0.0
19/02:00pm NW 7 9 - - - - - - - 29.6 1012.5 0.0
19/01:30pm NNW 7 9 - - - - - - - 28.8 1013.0 0.0
19/01:00pm NW 5 8 - - - - - - - 28.6 1013.4 0.0
19/12:30pm NW 5 7 - - - - - - - 28.6 1014.2 0.0
19/12:00pm N 5 7 - - - - - - - 27.7 1014.8 0.0
19/11:30am N 7 8 - - - - - - - 26.9 1015.1 0.0
19/11:00am N 5 6 - - - - - - - 27.2 1015.7 0.0
19/10:30am N 3 4 - - - - - - - 27.3 1016.1 0.0
19/10:00am NNE 3 3 - - - - - - - 26.6 1016.2 0.0
19/09:30am NE 2 4 - - - - - - - 26.7 1016.3 0.0
19/09:00am SE 1 3 - - - - - - - 27.0 1016.5 0.0
19/08:30am S 3 4 - - - - - - - 25.5 1016.1 0.0
19/08:00am S 3 5 - - - - - - - 24.1 1015.8 0.0
19/07:30am S 4 5 - - - - - - - 22.3 1015.7 0.0
19/07:00am S 4 5 - - - - - - - 21.3 1015.3 0.0
19/06:30am S 4 6 - - - - - - - 21.7 1014.9 0.0
19/06:00am S 5 7 - - - - - - - 21.8 1014.7 0.0
19/05:30am S 5 7 - - - - - - - 22.0 1014.6 0.0
19/05:00am S 5 6 - - - - - - - 22.2 1014.6 0.0
19/04:30am S 5 7 - - - - - - - 22.4 1014.6 0.0
19/04:00am S 5 6 - - - - - - - 22.6 1014.3 0.0
19/03:30am S 4 6 - - - - - - - 22.9 1014.3 0.0
19/03:00am S 4 5 - - - - - - - 22.9 1014.4 0.0
19/02:30am S 3 5 - - - - - - - 22.9 1014.5 0.0
19/02:00am S 4 6 - - - - - - - 23.5 1014.7 0.0
19/01:30am S 3 5 - - - - - - - 22.9 1015.0 0.0
19/01:00am S 3 3 - - - - - - - 22.8 1015.2 0.0
19/12:30am S 2 3 - - - - - - - 23.2 1015.5 0.0
19/12:00am SSW 3 6 - - - - - - - 23.8 1015.7 0.0
 
Date/Time
CST
Wind Sea
Height
m
Swell Vis
km
Cloud Weather Temp
°C
Press
hPa
Rain since
9am
mm
Dir  Spd
kts
Gust
kts
Height
m
Period
s
Dir
18/11:30pm S 3 5 - - - - - - - 23.8 1015.8 0.0
18/11:00pm SSW 2 5 - - - - - - - 23.6 1015.9 0.0
18/10:30pm SSW 3 4 - - - - - - - 23.9 1016.0 0.0
18/10:00pm SSW 2 3 - - - - - - - 23.5 1015.9 0.0
18/09:30pm SSW 2 3 - - - - - - - 23.8 1015.7 0.0
18/09:00pm W 2 3 - - - - - - - 24.7 1015.1 0.0
18/08:30pm S 3 5 - - - - - - - 24.6 1014.4 0.0
18/08:00pm S 4 5 - - - - - - - 24.9 1013.9 0.0
18/07:30pm SSW 3 4 - - - - - - - 25.4 1013.4 0.0
18/07:00pm W 1 2 - - - - - - - 26.1 1013.2 0.0
18/06:30pm WNW 1 2 - - - - - - - 27.8 1013.1 0.0
18/06:00pm NNE 2 3 - - - - - - - 27.9 1013.1 0.0
18/05:30pm NE 3 4 - - - - - - - 27.9 1012.9 0.0
18/05:00pm NNE 4 5 - - - - - - - 28.0 1012.8 0.0
18/04:30pm N 5 6 - - - - - - - 27.7 1012.8 0.0
18/04:00pm N 5 7 - - - - - - - 27.9 1013.0 0.0
18/03:30pm N 7 10 - - - - - - - 27.6 1012.9 0.0
18/03:00pm N 8 10 - - - - - - - 27.6 1013.3 0.0
18/02:30pm N 10 12 - - - - - - - 27.4 1013.7 0.0
18/02:00pm NNE 12 16 - - - - - - - 27.1 1013.9 0.0
18/01:30pm N 12 14 - - - - - - - 27.2 1014.2 0.0
18/01:00pm N 9 10 - - - - - - - 27.3 1014.9 0.0
18/12:30pm N 6 8 - - - - - - - 27.4 1015.7 0.0
18/12:00pm NNE 6 8 - - - - - - - 27.1 1016.4 0.0
18/11:30am NE 5 7 - - - - - - - 27.7 1017.2 0.0
18/11:00am NE 6 8 - - - - - - - 27.3 1017.6 0.0
18/10:30am NE 5 7 - - - - - - - 27.4 1018.1 0.0
18/10:00am NNE 3 4 - - - - - - - 27.2 1018.1 0.0
18/09:30am N 3 4 - - - - - - - 26.6 1017.9 0.0
18/09:00am WSW 1 3 - - - - - - - 26.5 1017.8 0.0
18/08:30am S 3 5 - - - - - - - 25.9 1017.6 0.0
18/08:00am S 3 4 - - - - - - - 25.1 1017.6 0.0
18/07:30am S 3 4 - - - - - - - 23.5 1017.3 0.0
18/07:00am SSE 3 5 - - - - - - - 22.9 1017.1 0.0
18/06:30am SSE 4 5 - - - - - - - 22.9 1016.8 0.0
18/06:00am SSE 3 5 - - - - - - - 23.3 1016.6 0.0
18/05:30am SSE 4 6 - - - - - - - 23.9 1016.3 0.0
18/05:00am ESE 4 7 - - - - - - - 24.8 1016.0 0.0
18/04:30am NE 7 10 - - - - - - - 25.3 1015.6 0.0
18/04:00am NE 5 7 - - - - - - - 25.1 1015.3 0.0
18/03:30am NE 5 7 - - - - - - - 25.3 1015.4 0.0
18/03:00am NE 7 9 - - - - - - - 25.1 1015.5 0.0
18/02:30am WSW 1 2 - - - - - - - 23.9 1015.3 0.0
18/02:00am SW 2 3 - - - - - - - 23.9 1015.4 0.0
18/01:30am SW 2 3 - - - - - - - 24.2 1015.3 0.0
18/01:00am SW 3 5 - - - - - - - 24.4 1015.4 0.0
18/12:30am SW 2 4 - - - - - - - 24.6 1015.6 0.0
18/12:00am SW 3 6 - - - - - - - 24.9 1015.9 0.0
 
Date/Time
CST
Wind Sea
Height
m
Swell Vis
km
Cloud Weather Temp
°C
Press
hPa
Rain since
9am
mm
Dir  Spd
kts
Gust
kts
Height
m
Period
s
Dir
17/11:30pm SW 3 7 - - - - - - - 25.2 1016.1 0.0
17/11:00pm W 4 8 - - - - - - - 25.5 1016.4 0.0
17/10:30pm W 5 8 - - - - - - - 25.8 1016.5 0.0
17/10:00pm W 4 7 - - - - - - - 25.6 1016.1 0.0
17/09:30pm WSW 5 10 - - - - - - - 25.6 1015.7 0.0
17/09:00pm E 3 6 - - - - - - - 26.6 1015.1 0.0
17/08:30pm E 3 5 - - - - - - - 26.7 1014.6 0.0
17/08:00pm ENE 4 6 - - - - - - - 26.9 1014.1 0.0
17/07:30pm ENE 4 9 - - - - - - - 27.1 1013.7 0.0
17/07:00pm NE 10 12 - - - - - - - 27.3 1013.3 0.0
17/06:30pm NE 10 13 - - - - - - - 27.3 1012.8 0.0
17/06:00pm NE 12 17 - - - - - - - 27.5 1012.6 0.0
17/05:30pm NE 13 17 - - - - - - - 27.2 1012.4 0.0
17/05:00pm NE 12 16 - - - - - - - 27.0 1012.1 0.0
17/04:30pm NE 13 18 - - - - - - - 27.1 1012.0 0.0
17/04:00pm NNE 14 19 - - - - - - - 27.2 1012.2 0.0
17/03:30pm NNE 14 17 - - - - - - - 27.4 1012.5 0.0
17/03:00pm NNE 12 17 - - - - - - - 27.8 1012.8 0.0
17/02:30pm NNE 10 14 - - - - - - - 27.4 1013.2 0.0
17/02:00pm NNE 10 13 - - - - - - - 27.5 1013.7 0.0
17/01:30pm NNE 9 12 - - - - - - - 28.1 1014.3 0.0
17/01:00pm N 9 12 - - - - - - - 27.1 1014.9 0.0
17/12:30pm NNE 7 9 - - - - - - - 27.2 1015.3 0.0
17/12:00pm NE 4 5 - - - - - - - 27.6 1015.8 0.0
17/11:30am NE 3 4 - - - - - - - 26.8 1016.3 0.0
17/11:00am NE 4 6 - - - - - - - 26.9 1016.9 0.0
17/10:30am NE 4 6 - - - - - - - 26.6 1017.1 0.0
17/10:00am ENE 4 6 - - - - - - - 27.1 1017.3 0.0
17/09:30am ENE 3 5 - - - - - - - 26.6 1017.2 0.0
17/09:00am ENE 3 4 - - - - - - - 26.4 1017.0 0.0
17/08:30am ENE 3 5 - - - - - - - 26.0 1016.8 0.0
17/08:00am SSE 2 3 - - - - - - - 24.6 1016.5 0.0
17/07:30am SE 2 3 - - - - - - - 22.3 1016.4 0.0
17/07:00am SE 3 5 - - - - - - - 22.3 1016.2 0.0
17/06:30am ESE 3 6 - - - - - - - 22.3 1015.9 0.0
17/06:00am SSE 3 4 - - - - - - - 20.8 1015.6 0.0
17/05:30am S 2 3 - - - - - - - 21.1 1015.3 0.0
17/05:00am S 3 4 - - - - - - - 21.5 1014.9 0.0
17/04:30am S 4 6 - - - - - - - 21.1 1014.8 0.0
17/04:00am S 3 3 - - - - - - - 21.1 1014.3 0.0
17/03:30am SSW 2 3 - - - - - - - 21.8 1014.1 0.0
17/03:00am SW 2 3 - - - - - - - 22.1 1013.7 0.0

Other formats

Comma delimited format used in spreadsheet applications
http://www.bom.gov.au/fwo/IDD60701/IDD60701.99510.axf

JavaScript Object Notation format (JSON) in row-major order
http://www.bom.gov.au/fwo/IDD60701/IDD60701.99510.json

Data quality

Most of these data are generated automatically and are frequently updated. Quality checks on data are not normally performed. It is possible for incorrect values to appear. Refer to information at About Latest Weather Observations and please check the disclaimer before using these data.